sensor_id;sensor_type;location;lat;lon;timestamp;noise_LAeq;noise_LA_min;noise_LA_max;noise_LA01;noise_LA95
71034;Laerm;58847;52.378;4.740;2023-02-28T00:00:08;48.61;47.51;50.16;;
71034;Laerm;58847;52.378;4.740;2023-02-28T00:00:21;48.50;47.52;50.36;;
71034;Laerm;58847;52.378;4.740;2023-02-28T00:00:32;48.56;47.70;49.65;;
71034;Laerm;58847;52.378;4.740;2023-02-28T00:00:42;48.30;47.39;49.48;;
71034;Laerm;58847;52.378;4.740;2023-02-28T00:00:55;48.41;47.35;49.79;;
71034;Laerm;58847;52.378;4.740;2023-02-28T00:01:06;48.46;47.40;49.79;;
71034;Laerm;58847;52.378;4.740;2023-02-28T00:01:16;48.45;47.58;49.87;;
71034;Laerm;58847;52.378;4.740;2023-02-28T00:01:27;48.38;47.51;50.35;;
71034;Laerm;58847;52.378;4.740;2023-02-28T00:01:37;48.55;47.58;49.38;;
71034;Laerm;58847;52.378;4.740;2023-02-28T00:01:47;48.61;47.54;50.58;;
71034;Laerm;58847;52.378;4.740;2023-02-28T00:01:58;48.61;47.62;50.25;;
71034;Laerm;58847;52.378;4.740;2023-02-28T00:02:08;48.56;47.50;49.54;;
71034;Laerm;58847;52.378;4.740;2023-02-28T00:02:18;48.37;47.35;49.56;;
71034;Laerm;58847;52.378;4.740;2023-02-28T00:02:28;48.21;47.28;49.27;;
71034;Laerm;58847;52.378;4.740;2023-02-28T00:02:42;48.35;47.19;54.69;;
71034;Laerm;58847;52.378;4.740;2023-02-28T00:02:52;48.48;47.47;49.32;;
71034;Laerm;58847;52.378;4.740;2023-02-28T00:03:03;48.31;47.38;50.22;;
71034;Laerm;58847;52.378;4.740;2023-02-28T00:03:16;48.19;47.32;49.45;;
71034;Laerm;58847;52.378;4.740;2023-02-28T00:03:27;48.24;47.39;55.79;;
71034;Laerm;58847;52.378;4.740;2023-02-28T00:03:37;48.14;47.07;49.03;;
71034;Laerm;58847;52.378;4.740;2023-02-28T00:03:47;48.22;47.42;50.47;;
71034;Laerm;58847;52.378;4.740;2023-02-28T00:03:58;48.27;47.37;50.40;;
71034;Laerm;58847;52.378;4.740;2023-02-28T00:04:08;48.23;47.16;49.22;;
71034;Laerm;58847;52.378;4.740;2023-02-28T00:04:20;48.29;47.10;49.85;;
71034;Laerm;58847;52.378;4.740;2023-02-28T00:04:30;48.60;47.68;49.40;;
71034;Laerm;58847;52.378;4.740;2023-02-28T00:04:41;48.63;47.38;53.84;;
71034;Laerm;58847;52.378;4.740;2023-02-28T00:04:51;48.71;47.69;50.05;;
71034;Laerm;58847;52.378;4.740;2023-02-28T00:05:12;48.38;47.19;50.76;;
71034;Laerm;58847;52.378;4.740;2023-02-28T00:05:23;48.21;47.13;49.84;;
71034;Laerm;58847;52.378;4.740;2023-02-28T00:05:33;48.19;47.08;49.56;;
71034;Laerm;58847;52.378;4.740;2023-02-28T00:05:44;48.39;47.16;49.46;;
71034;Laerm;58847;52.378;4.740;2023-02-28T00:05:54;48.38;47.32;49.72;;
71034;Laerm;58847;52.378;4.740;2023-02-28T00:06:08;48.46;47.48;49.66;;
71034;Laerm;58847;52.378;4.740;2023-02-28T00:06:19;48.38;47.36;49.48;;
71034;Laerm;58847;52.378;4.740;2023-02-28T00:06:30;48.38;47.22;49.47;;
71034;Laerm;58847;52.378;4.740;2023-02-28T00:06:41;48.65;47.49;50.22;;
71034;Laerm;58847;52.378;4.740;2023-02-28T00:06:52;48.54;47.58;49.41;;
71034;Laerm;58847;52.378;4.740;2023-02-28T00:07:02;48.67;47.50;50.48;;
71034;Laerm;58847;52.378;4.740;2023-02-28T00:07:12;48.47;47.38;49.50;;
71034;Laerm;58847;52.378;4.740;2023-02-28T00:07:22;48.55;47.30;50.01;;
71034;Laerm;58847;52.378;4.740;2023-02-28T00:07:33;48.56;47.53;50.32;;
71034;Laerm;58847;52.378;4.740;2023-02-28T00:07:44;48.54;47.51;49.56;;
71034;Laerm;58847;52.378;4.740;2023-02-28T00:07:54;48.30;47.47;49.76;;
71034;Laerm;58847;52.378;4.740;2023-02-28T00:08:05;48.39;47.31;50.76;;
71034;Laerm;58847;52.378;4.740;2023-02-28T00:08:15;48.38;47.49;50.60;;
71034;Laerm;58847;52.378;4.740;2023-02-28T00:08:25;48.27;47.31;50.17;;
71034;Laerm;58847;52.378;4.740;2023-02-28T00:08:37;48.29;47.18;53.97;;
71034;Laerm;58847;52.378;4.740;2023-02-28T00:08:47;48.25;47.32;49.55;;
71034;Laerm;58847;52.378;4.740;2023-02-28T00:08:58;48.31;47.48;49.55;;
71034;Laerm;58847;52.378;4.740;2023-02-28T00:09:08;48.29;47.47;50.00;;
71034;Laerm;58847;52.378;4.740;2023-02-28T00:09:18;48.34;47.29;53.13;;
71034;Laerm;58847;52.378;4.740;2023-02-28T00:09:29;48.39;47.45;49.47;;
71034;Laerm;58847;52.378;4.740;2023-02-28T00:09:39;48.25;47.29;49.24;;
71034;Laerm;58847;52.378;4.740;2023-02-28T00:09:49;48.31;47.37;49.39;;
71034;Laerm;58847;52.378;4.740;2023-02-28T00:09:59;48.39;47.27;49.92;;
71034;Laerm;58847;52.378;4.740;2023-02-28T00:10:14;48.65;47.75;50.13;;
71034;Laerm;58847;52.378;4.740;2023-02-28T00:10:26;48.68;47.37;49.91;;
71034;Laerm;58847;52.378;4.740;2023-02-28T00:10:36;48.54;47.54;50.11;;
71034;Laerm;58847;52.378;4.740;2023-02-28T00:10:46;48.53;47.49;49.88;;
71034;Laerm;58847;52.378;4.740;2023-02-28T00:11:00;48.70;47.74;51.84;;
71034;Laerm;58847;52.378;4.740;2023-02-28T00:11:11;48.63;47.47;50.56;;
71034;Laerm;58847;52.378;4.740;2023-02-28T00:11:22;48.61;47.65;50.22;;
71034;Laerm;58847;52.378;4.740;2023-02-28T00:11:32;48.78;47.92;50.17;;
71034;Laerm;58847;52.378;4.740;2023-02-28T00:11:43;48.75;47.67;50.49;;
71034;Laerm;58847;52.378;4.740;2023-02-28T00:11:53;48.63;47.83;49.61;;
71034;Laerm;58847;52.378;4.740;2023-02-28T00:12:03;48.48;47.62;49.62;;
71034;Laerm;58847;52.378;4.740;2023-02-28T00:12:20;48.57;47.61;49.56;;
71034;Laerm;58847;52.378;4.740;2023-02-28T00:12:30;48.71;47.71;49.77;;
71034;Laerm;58847;52.378;4.740;2023-02-28T00:12:40;48.60;47.69;50.13;;
71034;Laerm;58847;52.378;4.740;2023-02-28T00:12:51;48.57;47.21;49.69;;
71034;Laerm;58847;52.378;4.740;2023-02-28T00:13:03;48.62;47.48;49.66;;
71034;Laerm;58847;52.378;4.740;2023-02-28T00:13:14;48.68;47.65;50.89;;
71034;Laerm;58847;52.378;4.740;2023-02-28T00:13:24;48.60;47.65;49.41;;
71034;Laerm;58847;52.378;4.740;2023-02-28T00:13:35;48.68;48.00;51.09;;
71034;Laerm;58847;52.378;4.740;2023-02-28T00:13:47;48.62;47.53;50.48;;
71034;Laerm;58847;52.378;4.740;2023-02-28T00:13:57;48.32;46.95;49.69;;
71034;Laerm;58847;52.378;4.740;2023-02-28T00:14:11;48.34;47.24;49.90;;
71034;Laerm;58847;52.378;4.740;2023-02-28T00:14:21;48.31;47.35;49.40;;
71034;Laerm;58847;52.378;4.740;2023-02-28T00:14:31;48.38;47.26;49.21;;
71034;Laerm;58847;52.378;4.740;2023-02-28T00:14:41;48.46;47.39;50.45;;
71034;Laerm;58847;52.378;4.740;2023-02-28T00:14:52;48.62;47.69;49.92;;
71034;Laerm;58847;52.378;4.740;2023-02-28T00:15:04;48.69;47.61;50.09;;
71034;Laerm;58847;52.378;4.740;2023-02-28T00:15:15;48.49;47.65;49.74;;
71034;Laerm;58847;52.378;4.740;2023-02-28T00:15:25;48.51;47.56;49.39;;
71034;Laerm;58847;52.378;4.740;2023-02-28T00:15:36;48.53;47.53;49.85;;
71034;Laerm;58847;52.378;4.740;2023-02-28T00:15:46;48.57;47.68;49.62;;
71034;Laerm;58847;52.378;4.740;2023-02-28T00:15:59;48.50;47.42;50.20;;
71034;Laerm;58847;52.378;4.740;2023-02-28T00:16:11;48.32;47.43;49.12;;
71034;Laerm;58847;52.378;4.740;2023-02-28T00:16:23;48.42;47.38;50.22;;
71034;Laerm;58847;52.378;4.740;2023-02-28T00:16:33;48.35;47.52;49.91;;
71034;Laerm;58847;52.378;4.740;2023-02-28T00:16:43;48.38;47.48;49.91;;
71034;Laerm;58847;52.378;4.740;2023-02-28T00:16:53;48.44;47.40;49.63;;
71034;Laerm;58847;52.378;4.740;2023-02-28T00:17:04;48.76;47.62;49.80;;
71034;Laerm;58847;52.378;4.740;2023-02-28T00:17:14;48.65;47.67;49.60;;
71034;Laerm;58847;52.378;4.740;2023-02-28T00:17:24;49.30;48.08;50.60;;
71034;Laerm;58847;52.378;4.740;2023-02-28T00:17:34;49.19;47.76;51.08;;
71034;Laerm;58847;52.378;4.740;2023-02-28T00:17:45;48.65;47.72;54.01;;
71034;Laerm;58847;52.378;4.740;2023-02-28T00:17:55;48.65;47.73;49.50;;
71034;Laerm;58847;52.378;4.740;2023-02-28T00:18:06;48.73;47.70;54.01;;
71034;Laerm;58847;52.378;4.740;2023-02-28T00:18:16;48.73;47.85;50.29;;
71034;Laerm;58847;52.378;4.740;2023-02-28T00:18:26;48.71;47.65;49.72;;
71034;Laerm;58847;52.378;4.740;2023-02-28T00:18:37;48.73;47.86;49.96;;
71034;Laerm;58847;52.378;4.740;2023-02-28T00:18:47;49.11;47.82;55.08;;
71034;Laerm;58847;52.378;4.740;2023-02-28T00:18:57;48.91;47.61;50.29;;
71034;Laerm;58847;52.378;4.740;2023-02-28T00:19:08;48.57;47.54;49.62;;
71034;Laerm;58847;52.378;4.740;2023-02-28T00:19:18;48.68;47.80;50.32;;
71034;Laerm;58847;52.378;4.740;2023-02-28T00:19:28;48.69;47.51;49.89;;
71034;Laerm;58847;52.378;4.740;2023-02-28T00:19:38;48.97;47.91;50.25;;
71034;Laerm;58847;52.378;4.740;2023-02-28T00:19:49;49.03;48.00;49.98;;
71034;Laerm;58847;52.378;4.740;2023-02-28T00:20:00;48.87;47.77;50.42;;
71034;Laerm;58847;52.378;4.740;2023-02-28T00:20:21;48.61;47.24;50.14;;
71034;Laerm;58847;52.378;4.740;2023-02-28T00:20:31;48.80;47.81;49.86;;
71034;Laerm;58847;52.378;4.740;2023-02-28T00:20:42;48.65;47.48;50.30;;
71034;Laerm;58847;52.378;4.740;2023-02-28T00:20:52;48.64;47.68;50.26;;
71034;Laerm;58847;52.378;4.740;2023-02-28T00:21:02;48.51;47.38;49.65;;
71034;Laerm;58847;52.378;4.740;2023-02-28T00:21:13;48.42;47.47;49.41;;
71034;Laerm;58847;52.378;4.740;2023-02-28T00:21:24;48.52;47.68;50.37;;
71034;Laerm;58847;52.378;4.740;2023-02-28T00:21:34;48.67;47.66;51.06;;
71034;Laerm;58847;52.378;4.740;2023-02-28T00:21:45;48.73;47.81;50.68;;
71034;Laerm;58847;52.378;4.740;2023-02-28T00:21:55;48.62;47.35;49.78;;
71034;Laerm;58847;52.378;4.740;2023-02-28T00:22:06;48.64;47.76;50.06;;
71034;Laerm;58847;52.378;4.740;2023-02-28T00:22:19;48.56;47.48;50.36;;
71034;Laerm;58847;52.378;4.740;2023-02-28T00:22:30;48.50;47.38;50.22;;
71034;Laerm;58847;52.378;4.740;2023-02-28T00:22:41;48.33;47.21;49.41;;
71034;Laerm;58847;52.378;4.740;2023-02-28T00:22:52;48.47;47.53;50.40;;
71034;Laerm;58847;52.378;4.740;2023-02-28T00:23:03;48.38;47.41;54.23;;
71034;Laerm;58847;52.378;4.740;2023-02-28T00:23:13;48.33;47.54;49.57;;
71034;Laerm;58847;52.378;4.740;2023-02-28T00:23:23;48.30;47.35;49.28;;
71034;Laerm;58847;52.378;4.740;2023-02-28T00:23:34;48.58;47.55;49.56;;
71034;Laerm;58847;52.378;4.740;2023-02-28T00:23:44;48.59;47.52;49.35;;
71034;Laerm;58847;52.378;4.740;2023-02-28T00:23:54;48.75;47.91;49.79;;
71034;Laerm;58847;52.378;4.740;2023-02-28T00:24:05;48.53;47.40;49.89;;
71034;Laerm;58847;52.378;4.740;2023-02-28T00:24:15;48.35;47.36;49.78;;
71034;Laerm;58847;52.378;4.740;2023-02-28T00:24:25;48.36;47.24;50.21;;
71034;Laerm;58847;52.378;4.740;2023-02-28T00:24:35;48.74;47.37;50.06;;
71034;Laerm;58847;52.378;4.740;2023-02-28T00:24:46;48.62;47.42;50.70;;
71034;Laerm;58847;52.378;4.740;2023-02-28T00:24:57;48.93;47.80;51.09;;
71034;Laerm;58847;52.378;4.740;2023-02-28T00:25:08;49.36;47.72;52.97;;
71034;Laerm;58847;52.378;4.740;2023-02-28T00:25:19;49.30;47.96;51.91;;
71034;Laerm;58847;52.378;4.740;2023-02-28T00:25:30;49.00;47.91;51.23;;
71034;Laerm;58847;52.378;4.740;2023-02-28T00:25:40;48.72;47.28;51.14;;
71034;Laerm;58847;52.378;4.740;2023-02-28T00:25:51;48.79;47.89;50.10;;
71034;Laerm;58847;52.378;4.740;2023-02-28T00:26:01;49.01;47.88;50.30;;
71034;Laerm;58847;52.378;4.740;2023-02-28T00:26:11;48.88;47.89;50.00;;
71034;Laerm;58847;52.378;4.740;2023-02-28T00:26:22;49.02;47.75;50.99;;
71034;Laerm;58847;52.378;4.740;2023-02-28T00:26:32;49.07;48.30;50.14;;
71034;Laerm;58847;52.378;4.740;2023-02-28T00:26:42;48.43;47.61;50.37;;
71034;Laerm;58847;52.378;4.740;2023-02-28T00:26:52;48.47;47.39;50.37;;
71034;Laerm;58847;52.378;4.740;2023-02-28T00:27:03;48.65;47.65;49.70;;
71034;Laerm;58847;52.378;4.740;2023-02-28T00:27:13;48.67;47.87;50.12;;
71034;Laerm;58847;52.378;4.740;2023-02-28T00:27:24;48.76;47.46;49.71;;
71034;Laerm;58847;52.378;4.740;2023-02-28T00:27:34;48.78;47.92;49.72;;
71034;Laerm;58847;52.378;4.740;2023-02-28T00:27:45;48.63;47.60;49.95;;
71034;Laerm;58847;52.378;4.740;2023-02-28T00:27:56;48.37;47.46;49.94;;
71034;Laerm;58847;52.378;4.740;2023-02-28T00:28:06;48.35;47.56;49.69;;
71034;Laerm;58847;52.378;4.740;2023-02-28T00:28:16;48.30;47.41;49.40;;
71034;Laerm;58847;52.378;4.740;2023-02-28T00:28:26;48.30;47.40;49.90;;
71034;Laerm;58847;52.378;4.740;2023-02-28T00:28:37;48.33;47.45;49.47;;
71034;Laerm;58847;52.378;4.740;2023-02-28T00:28:47;48.41;47.45;50.44;;
71034;Laerm;58847;52.378;4.740;2023-02-28T00:28:58;48.44;47.43;50.89;;
71034;Laerm;58847;52.378;4.740;2023-02-28T00:29:08;48.26;47.44;49.85;;
71034;Laerm;58847;52.378;4.740;2023-02-28T00:29:19;48.32;47.33;50.64;;
71034;Laerm;58847;52.378;4.740;2023-02-28T00:29:29;48.31;47.30;53.69;;
71034;Laerm;58847;52.378;4.740;2023-02-28T00:29:40;48.20;47.01;49.18;;
71034;Laerm;58847;52.378;4.740;2023-02-28T00:29:50;48.34;47.10;50.28;;
71034;Laerm;58847;52.378;4.740;2023-02-28T00:30:00;48.33;47.47;50.34;;
71034;Laerm;58847;52.378;4.740;2023-02-28T00:30:12;48.25;47.41;49.52;;
71034;Laerm;58847;52.378;4.740;2023-02-28T00:30:22;48.19;47.34;51.17;;
71034;Laerm;58847;52.378;4.740;2023-02-28T00:30:33;48.17;47.32;49.33;;
71034;Laerm;58847;52.378;4.740;2023-02-28T00:30:43;48.23;47.27;49.50;;
71034;Laerm;58847;52.378;4.740;2023-02-28T00:30:54;48.25;47.39;50.33;;
71034;Laerm;58847;52.378;4.740;2023-02-28T00:31:04;48.17;47.13;49.17;;
71034;Laerm;58847;52.378;4.740;2023-02-28T00:31:15;48.20;47.36;49.64;;
71034;Laerm;58847;52.378;4.740;2023-02-28T00:31:25;48.28;47.11;50.52;;
71034;Laerm;58847;52.378;4.740;2023-02-28T00:31:35;48.22;47.43;49.13;;
71034;Laerm;58847;52.378;4.740;2023-02-28T00:31:45;48.28;47.23;49.21;;
71034;Laerm;58847;52.378;4.740;2023-02-28T00:31:55;48.31;47.15;49.42;;
71034;Laerm;58847;52.378;4.740;2023-02-28T00:32:06;48.21;47.13;48.99;;
71034;Laerm;58847;52.378;4.740;2023-02-28T00:32:16;48.29;47.46;49.09;;
71034;Laerm;58847;52.378;4.740;2023-02-28T00:32:28;48.34;47.27;52.79;;
71034;Laerm;58847;52.378;4.740;2023-02-28T00:32:39;48.30;47.23;53.86;;
71034;Laerm;58847;52.378;4.740;2023-02-28T00:32:50;48.18;47.48;49.59;;
71034;Laerm;58847;52.378;4.740;2023-02-28T00:33:00;48.31;47.52;49.50;;
71034;Laerm;58847;52.378;4.740;2023-02-28T00:33:11;48.29;47.24;49.39;;
71034;Laerm;58847;52.378;4.740;2023-02-28T00:33:21;48.35;47.29;49.27;;
71034;Laerm;58847;52.378;4.740;2023-02-28T00:33:31;48.39;47.25;49.50;;
71034;Laerm;58847;52.378;4.740;2023-02-28T00:33:42;48.41;47.44;50.51;;
71034;Laerm;58847;52.378;4.740;2023-02-28T00:33:52;48.39;47.30;52.98;;
71034;Laerm;58847;52.378;4.740;2023-02-28T00:34:02;48.22;47.21;49.24;;
71034;Laerm;58847;52.378;4.740;2023-02-28T00:34:12;48.15;47.04;49.88;;
71034;Laerm;58847;52.378;4.740;2023-02-28T00:34:23;48.38;47.26;50.55;;
71034;Laerm;58847;52.378;4.740;2023-02-28T00:34:33;48.23;47.31;49.25;;
71034;Laerm;58847;52.378;4.740;2023-02-28T00:34:47;48.20;47.04;49.17;;
71034;Laerm;58847;52.378;4.740;2023-02-28T00:34:57;48.25;47.16;49.77;;
71034;Laerm;58847;52.378;4.740;2023-02-28T00:35:08;48.26;47.11;49.05;;
71034;Laerm;58847;52.378;4.740;2023-02-28T00:35:19;48.72;47.54;50.02;;
71034;Laerm;58847;52.378;4.740;2023-02-28T00:35:29;48.56;47.52;50.44;;
71034;Laerm;58847;52.378;4.740;2023-02-28T00:35:39;48.91;47.66;50.25;;
71034;Laerm;58847;52.378;4.740;2023-02-28T00:35:50;48.62;47.39;50.54;;
71034;Laerm;58847;52.378;4.740;2023-02-28T00:36:01;48.72;47.52;54.11;;
71034;Laerm;58847;52.378;4.740;2023-02-28T00:36:11;48.83;47.75;55.20;;
71034;Laerm;58847;52.378;4.740;2023-02-28T00:36:21;48.73;47.78;51.21;;
71034;Laerm;58847;52.378;4.740;2023-02-28T00:36:32;48.64;47.80;49.44;;
71034;Laerm;58847;52.378;4.740;2023-02-28T00:36:58;48.45;47.09;50.00;;
71034;Laerm;58847;52.378;4.740;2023-02-28T00:37:09;48.47;47.17;50.42;;
71034;Laerm;58847;52.378;4.740;2023-02-28T00:37:19;48.82;47.40;50.95;;
71034;Laerm;58847;52.378;4.740;2023-02-28T00:37:29;48.45;47.38;49.38;;
71034;Laerm;58847;52.378;4.740;2023-02-28T00:37:40;48.64;47.56;50.01;;
71034;Laerm;58847;52.378;4.740;2023-02-28T00:37:51;48.94;47.57;51.30;;
71034;Laerm;58847;52.378;4.740;2023-02-28T00:38:01;48.65;47.62;51.39;;
71034;Laerm;58847;52.378;4.740;2023-02-28T00:38:12;48.70;47.76;50.25;;
71034;Laerm;58847;52.378;4.740;2023-02-28T00:38:23;48.65;47.55;49.82;;
71034;Laerm;58847;52.378;4.740;2023-02-28T00:38:33;48.62;47.68;51.16;;
71034;Laerm;58847;52.378;4.740;2023-02-28T00:38:44;49.07;47.67;50.56;;
71034;Laerm;58847;52.378;4.740;2023-02-28T00:38:54;48.65;47.26;50.12;;
71034;Laerm;58847;52.378;4.740;2023-02-28T00:39:04;48.47;47.34;50.63;;
71034;Laerm;58847;52.378;4.740;2023-02-28T00:39:15;49.37;47.63;50.50;;
71034;Laerm;58847;52.378;4.740;2023-02-28T00:39:25;48.97;47.62;50.20;;
71034;Laerm;58847;52.378;4.740;2023-02-28T00:39:36;48.82;47.58;54.22;;
71034;Laerm;58847;52.378;4.740;2023-02-28T00:39:47;48.57;47.48;54.55;;
71034;Laerm;58847;52.378;4.740;2023-02-28T00:39:57;48.41;47.33;50.33;;
71034;Laerm;58847;52.378;4.740;2023-02-28T00:40:08;48.75;47.68;49.97;;
71034;Laerm;58847;52.378;4.740;2023-02-28T00:40:19;48.74;47.33;53.88;;
71034;Laerm;58847;52.378;4.740;2023-02-28T00:40:29;48.81;47.56;50.31;;
71034;Laerm;58847;52.378;4.740;2023-02-28T00:40:40;48.63;47.50;50.18;;
71034;Laerm;58847;52.378;4.740;2023-02-28T00:40:50;48.96;47.60;50.12;;
71034;Laerm;58847;52.378;4.740;2023-02-28T00:41:00;48.64;47.51;50.13;;
71034;Laerm;58847;52.378;4.740;2023-02-28T00:41:14;48.94;47.38;51.43;;
71034;Laerm;58847;52.378;4.740;2023-02-28T00:41:24;48.62;47.79;50.17;;
71034;Laerm;58847;52.378;4.740;2023-02-28T00:41:34;48.67;47.43;49.70;;
71034;Laerm;58847;52.378;4.740;2023-02-28T00:41:45;48.66;47.74;50.45;;
71034;Laerm;58847;52.378;4.740;2023-02-28T00:41:55;48.78;47.60;50.01;;
71034;Laerm;58847;52.378;4.740;2023-02-28T00:42:18;48.56;47.53;50.70;;
71034;Laerm;58847;52.378;4.740;2023-02-28T00:42:29;48.51;47.64;49.46;;
71034;Laerm;58847;52.378;4.740;2023-02-28T00:42:39;48.43;47.35;49.69;;
71034;Laerm;58847;52.378;4.740;2023-02-28T00:42:50;48.43;47.04;50.15;;
71034;Laerm;58847;52.378;4.740;2023-02-28T00:43:00;48.48;47.57;49.42;;
71034;Laerm;58847;52.378;4.740;2023-02-28T00:43:10;48.53;47.42;49.57;;
71034;Laerm;58847;52.378;4.740;2023-02-28T00:43:26;48.62;47.68;50.28;;
71034;Laerm;58847;52.378;4.740;2023-02-28T00:43:37;48.69;47.38;50.60;;
71034;Laerm;58847;52.378;4.740;2023-02-28T00:43:48;48.46;47.26;50.93;;
71034;Laerm;58847;52.378;4.740;2023-02-28T00:43:58;48.46;47.45;50.69;;
71034;Laerm;58847;52.378;4.740;2023-02-28T00:44:09;48.52;47.24;50.51;;
71034;Laerm;58847;52.378;4.740;2023-02-28T00:44:20;48.48;47.60;51.53;;
71034;Laerm;58847;52.378;4.740;2023-02-28T00:44:31;48.59;47.56;51.28;;
71034;Laerm;58847;52.378;4.740;2023-02-28T00:44:42;48.53;47.37;50.75;;
71034;Laerm;58847;52.378;4.740;2023-02-28T00:44:52;48.61;47.26;50.69;;
71034;Laerm;58847;52.378;4.740;2023-02-28T00:45:03;48.56;47.53;50.43;;
71034;Laerm;58847;52.378;4.740;2023-02-28T00:45:14;48.71;47.39;55.16;;
71034;Laerm;58847;52.378;4.740;2023-02-28T00:45:24;48.62;47.58;49.59;;
71034;Laerm;58847;52.378;4.740;2023-02-28T00:45:35;48.47;47.44;50.33;;
71034;Laerm;58847;52.378;4.740;2023-02-28T00:45:45;48.37;47.07;50.61;;
71034;Laerm;58847;52.378;4.740;2023-02-28T00:45:55;48.74;47.61;49.98;;
71034;Laerm;58847;52.378;4.740;2023-02-28T00:46:06;48.86;47.76;50.79;;
71034;Laerm;58847;52.378;4.740;2023-02-28T00:46:16;48.65;47.32;49.67;;
71034;Laerm;58847;52.378;4.740;2023-02-28T00:46:26;48.69;47.53;50.16;;
71034;Laerm;58847;52.378;4.740;2023-02-28T00:46:36;48.40;47.54;49.77;;
71034;Laerm;58847;52.378;4.740;2023-02-28T00:46:47;48.33;47.42;49.75;;
71034;Laerm;58847;52.378;4.740;2023-02-28T00:46:57;48.35;47.35;49.69;;
71034;Laerm;58847;52.378;4.740;2023-02-28T00:47:08;48.50;47.40;49.45;;
71034;Laerm;58847;52.378;4.740;2023-02-28T00:47:18;48.51;47.59;50.13;;
71034;Laerm;58847;52.378;4.740;2023-02-28T00:47:28;48.54;47.67;49.88;;
71034;Laerm;58847;52.378;4.740;2023-02-28T00:47:40;48.45;47.33;49.43;;
71034;Laerm;58847;52.378;4.740;2023-02-28T00:47:51;48.52;47.61;50.21;;
71034;Laerm;58847;52.378;4.740;2023-02-28T00:48:01;48.45;47.24;49.16;;
71034;Laerm;58847;52.378;4.740;2023-02-28T00:48:11;48.45;47.49;49.19;;
71034;Laerm;58847;52.378;4.740;2023-02-28T00:48:21;48.45;47.52;49.36;;
71034;Laerm;58847;52.378;4.740;2023-02-28T00:48:32;48.49;47.30;49.96;;
71034;Laerm;58847;52.378;4.740;2023-02-28T00:48:42;48.50;47.74;50.58;;
71034;Laerm;58847;52.378;4.740;2023-02-28T00:48:53;48.42;47.54;49.55;;
71034;Laerm;58847;52.378;4.740;2023-02-28T00:49:03;48.40;47.46;49.99;;
71034;Laerm;58847;52.378;4.740;2023-02-28T00:49:13;48.34;47.25;49.44;;
71034;Laerm;58847;52.378;4.740;2023-02-28T00:49:25;48.41;47.42;49.59;;
71034;Laerm;58847;52.378;4.740;2023-02-28T00:49:36;48.43;47.57;50.48;;
71034;Laerm;58847;52.378;4.740;2023-02-28T00:49:46;48.46;47.50;50.08;;
71034;Laerm;58847;52.378;4.740;2023-02-28T00:49:56;48.42;47.13;50.66;;
71034;Laerm;58847;52.378;4.740;2023-02-28T00:50:07;48.40;47.13;50.35;;
71034;Laerm;58847;52.378;4.740;2023-02-28T00:50:18;48.52;47.40;49.47;;
71034;Laerm;58847;52.378;4.740;2023-02-28T00:50:28;48.68;47.83;50.31;;
71034;Laerm;58847;52.378;4.740;2023-02-28T00:50:38;48.69;47.76;49.74;;
71034;Laerm;58847;52.378;4.740;2023-02-28T00:50:49;48.69;47.73;50.87;;
71034;Laerm;58847;52.378;4.740;2023-02-28T00:50:59;48.65;47.21;50.18;;
71034;Laerm;58847;52.378;4.740;2023-02-28T00:51:11;48.68;47.47;54.86;;
71034;Laerm;58847;52.378;4.740;2023-02-28T00:51:21;48.58;47.78;50.79;;
71034;Laerm;58847;52.378;4.740;2023-02-28T00:51:31;48.59;47.79;50.69;;
71034;Laerm;58847;52.378;4.740;2023-02-28T00:51:42;48.62;47.69;49.64;;
71034;Laerm;58847;52.378;4.740;2023-02-28T00:51:52;48.50;47.57;50.52;;
71034;Laerm;58847;52.378;4.740;2023-02-28T00:52:03;48.41;47.42;49.72;;
71034;Laerm;58847;52.378;4.740;2023-02-28T00:52:13;48.50;47.44;49.42;;
71034;Laerm;58847;52.378;4.740;2023-02-28T00:52:24;48.50;47.44;50.18;;
71034;Laerm;58847;52.378;4.740;2023-02-28T00:52:34;48.52;47.53;50.04;;
71034;Laerm;58847;52.378;4.740;2023-02-28T00:52:44;48.52;47.60;49.47;;
71034;Laerm;58847;52.378;4.740;2023-02-28T00:52:55;48.43;47.54;49.74;;
71034;Laerm;58847;52.378;4.740;2023-02-28T00:53:05;48.55;47.73;54.98;;
71034;Laerm;58847;52.378;4.740;2023-02-28T00:53:15;48.51;47.39;49.88;;
71034;Laerm;58847;52.378;4.740;2023-02-28T00:53:26;48.54;47.27;53.94;;
71034;Laerm;58847;52.378;4.740;2023-02-28T00:53:37;48.54;47.54;55.12;;
71034;Laerm;58847;52.378;4.740;2023-02-28T00:53:47;48.51;47.43;49.62;;
71034;Laerm;58847;52.378;4.740;2023-02-28T00:53:57;48.54;47.54;50.85;;
71034;Laerm;58847;52.378;4.740;2023-02-28T00:54:08;48.67;47.65;50.23;;
71034;Laerm;58847;52.378;4.740;2023-02-28T00:54:18;48.65;47.71;50.57;;
71034;Laerm;58847;52.378;4.740;2023-02-28T00:54:28;48.64;47.52;49.75;;
71034;Laerm;58847;52.378;4.740;2023-02-28T00:54:39;48.52;47.34;49.93;;
71034;Laerm;58847;52.378;4.740;2023-02-28T00:54:50;48.58;47.44;50.00;;
71034;Laerm;58847;52.378;4.740;2023-02-28T00:55:00;48.46;47.57;50.90;;
71034;Laerm;58847;52.378;4.740;2023-02-28T00:55:10;48.42;47.42;49.58;;
71034;Laerm;58847;52.378;4.740;2023-02-28T00:55:21;48.40;47.21;53.97;;
71034;Laerm;58847;52.378;4.740;2023-02-28T00:55:31;48.42;47.24;50.02;;
71034;Laerm;58847;52.378;4.740;2023-02-28T00:55:41;48.45;47.52;49.99;;
71034;Laerm;58847;52.378;4.740;2023-02-28T00:55:51;48.82;47.62;50.86;;
71034;Laerm;58847;52.378;4.740;2023-02-28T00:56:02;49.02;47.60;54.63;;
71034;Laerm;58847;52.378;4.740;2023-02-28T00:56:13;48.54;47.45;49.55;;
71034;Laerm;58847;52.378;4.740;2023-02-28T00:56:23;48.49;47.51;49.55;;
71034;Laerm;58847;52.378;4.740;2023-02-28T00:56:33;48.42;47.40;50.66;;
71034;Laerm;58847;52.378;4.740;2023-02-28T00:56:44;48.55;47.76;49.38;;
71034;Laerm;58847;52.378;4.740;2023-02-28T00:56:55;48.67;47.61;49.92;;
71034;Laerm;58847;52.378;4.740;2023-02-28T00:57:06;48.59;47.39;54.08;;
71034;Laerm;58847;52.378;4.740;2023-02-28T00:57:16;48.48;47.33;50.53;;
71034;Laerm;58847;52.378;4.740;2023-02-28T00:57:26;48.46;47.48;50.52;;
71034;Laerm;58847;52.378;4.740;2023-02-28T00:57:37;48.40;47.50;49.73;;
71034;Laerm;58847;52.378;4.740;2023-02-28T00:57:47;48.41;47.16;49.40;;
71034;Laerm;58847;52.378;4.740;2023-02-28T00:57:57;48.48;47.07;50.50;;
71034;Laerm;58847;52.378;4.740;2023-02-28T00:58:07;48.53;47.44;49.55;;
71034;Laerm;58847;52.378;4.740;2023-02-28T00:58:19;48.63;47.52;49.68;;
71034;Laerm;58847;52.378;4.740;2023-02-28T00:58:29;48.66;47.50;49.72;;
71034;Laerm;58847;52.378;4.740;2023-02-28T00:58:40;48.50;47.57;49.97;;
71034;Laerm;58847;52.378;4.740;2023-02-28T00:58:50;48.52;47.44;50.18;;
71034;Laerm;58847;52.378;4.740;2023-02-28T00:59:00;48.49;47.66;49.70;;
71034;Laerm;58847;52.378;4.740;2023-02-28T00:59:11;48.61;47.67;49.93;;
71034;Laerm;58847;52.378;4.740;2023-02-28T00:59:22;48.68;47.69;50.21;;
71034;Laerm;58847;52.378;4.740;2023-02-28T00:59:32;48.62;47.54;50.10;;
71034;Laerm;58847;52.378;4.740;2023-02-28T00:59:42;48.50;47.48;49.90;;
71034;Laerm;58847;52.378;4.740;2023-02-28T00:59:52;48.60;47.41;49.65;;
71034;Laerm;58847;52.378;4.740;2023-02-28T01:00:04;48.55;47.29;50.30;;
71034;Laerm;58847;52.378;4.740;2023-02-28T01:00:15;48.55;47.49;50.05;;
71034;Laerm;58847;52.378;4.740;2023-02-28T01:00:25;48.47;47.43;49.90;;